Terminal Aerodrome Forecast
Issued by NWS

Home | Current Version | Previous Version | Text Only | Print | Product List | Glossary On
Versions: 1 2 3 4 5 6 7 8 9 10 11 12 13 14 15 16 17 18 19 20 21 22 23 24 25 26 27 28 29 30 31 32 33 34 35 36 37 38 39 40
000
FTUS44 KFWD 020520
TAFGKY
TAF
KGKY 020520Z 0206/0306 36011KT P6SM VCSH BKN012 OVC017
      TEMPO 0206/0208 5SM -RA BKN009
     FM020800 01009KT 3SM -DZ BR OVC006
     FM021600 36008KT 5SM BR OVC008
     FM030200 12005KT 2SM BR OVC005=

USA.gov is the U.S. government's official web portal to all federal, state and local government web resources and services.